sensor_id;sensor_type;location;lat;lon;timestamp;pressure;altitude;pressure_sealevel;temperature;humidity
29385;BME280;16367;48.736;9.218;2023-07-31T00:01:17;-23653.84;;;15.39;95.53
29385;BME280;16367;48.736;9.218;2023-07-31T00:03:20;-23651.63;;;15.32;96.24
29385;BME280;16367;48.736;9.218;2023-07-31T00:05:23;-23654.31;;;15.41;96.50
29385;BME280;16367;48.736;9.218;2023-07-31T00:07:27;-23651.31;;;15.31;96.73
29385;BME280;16367;48.736;9.218;2023-07-31T00:09:30;-23644.38;;;15.09;96.62
29385;BME280;16367;48.736;9.218;2023-07-31T00:11:33;-23643.44;;;15.06;98.34
29385;BME280;16367;48.736;9.218;2023-07-31T00:13:35;-23645.31;;;15.12;98.35
29385;BME280;16367;48.736;9.218;2023-07-31T00:15:37;-23644.53;;;15.10;98.66
29385;BME280;16367;48.736;9.218;2023-07-31T00:17:40;-23642.66;;;15.04;99.18
29385;BME280;16367;48.736;9.218;2023-07-31T00:19:43;-23640.91;;;14.98;99.59
29385;BME280;16367;48.736;9.218;2023-07-31T00:21:47;-23638.38;;;14.90;100.00
29385;BME280;16367;48.736;9.218;2023-07-31T00:23:51;-23638.38;;;14.90;100.00
29385;BME280;16367;48.736;9.218;2023-07-31T00:25:53;-23637.59;;;14.87;100.00
29385;BME280;16367;48.736;9.218;2023-07-31T00:27:55;-23638.38;;;14.90;100.00
29385;BME280;16367;48.736;9.218;2023-07-31T00:29:58;-23636.34;;;14.83;100.00
29385;BME280;16367;48.736;9.218;2023-07-31T00:32:01;-23638.38;;;14.90;100.00
29385;BME280;16367;48.736;9.218;2023-07-31T00:34:04;-23632.69;;;14.72;100.00
29385;BME280;16367;48.736;9.218;2023-07-31T00:36:06;-23633.66;;;14.75;100.00
29385;BME280;16367;48.736;9.218;2023-07-31T00:38:08;-23636.03;;;14.82;100.00
29385;BME280;16367;48.736;9.218;2023-07-31T00:40:12;-23634.91;;;14.79;100.00
29385;BME280;16367;48.736;9.218;2023-07-31T00:42:16;-23632.56;;;14.71;100.00
29385;BME280;16367;48.736;9.218;2023-07-31T00:44:18;-23632.06;;;14.70;100.00
29385;BME280;16367;48.736;9.218;2023-07-31T00:46:21;-23631.13;;;14.67;100.00
29385;BME280;16367;48.736;9.218;2023-07-31T00:48:24;-23630.19;;;14.64;100.00
29385;BME280;16367;48.736;9.218;2023-07-31T00:50:28;-23635.53;;;14.81;100.00
29385;BME280;16367;48.736;9.218;2023-07-31T00:52:31;-23632.88;;;14.72;100.00
29385;BME280;16367;48.736;9.218;2023-07-31T00:54:34;-23631.75;;;14.69;100.00
29385;BME280;16367;48.736;9.218;2023-07-31T00:56:37;-23632.38;;;14.71;100.00
29385;BME280;16367;48.736;9.218;2023-07-31T00:58:40;-23633.81;;;14.75;100.00
29385;BME280;16367;48.736;9.218;2023-07-31T01:00:43;-23633.03;;;14.73;100.00
29385;BME280;16367;48.736;9.218;2023-07-31T01:02:46;-23634.75;;;14.78;100.00
29385;BME280;16367;48.736;9.218;2023-07-31T01:04:49;-23632.56;;;14.71;100.00
29385;BME280;16367;48.736;9.218;2023-07-31T01:06:56;-23633.19;;;14.73;100.00
29385;BME280;16367;48.736;9.218;2023-07-31T01:09:03;-23639.00;;;14.92;100.00
29385;BME280;16367;48.736;9.218;2023-07-31T01:11:10;-23634.91;;;14.79;100.00
29385;BME280;16367;48.736;9.218;2023-07-31T01:13:19;-23633.34;;;14.74;100.00
29385;BME280;16367;48.736;9.218;2023-07-31T01:15:21;-23633.34;;;14.74;100.00
29385;BME280;16367;48.736;9.218;2023-07-31T01:17:24;-23635.88;;;14.82;100.00
29385;BME280;16367;48.736;9.218;2023-07-31T01:19:27;-23635.06;;;14.79;100.00
29385;BME280;16367;48.736;9.218;2023-07-31T01:24:23;-23638.38;;;14.90;100.00
29385;BME280;16367;48.736;9.218;2023-07-31T01:26:31;-23638.06;;;14.89;100.00
29385;BME280;16367;48.736;9.218;2023-07-31T01:28:43;-23635.06;;;14.79;100.00
29385;BME280;16367;48.736;9.218;2023-07-31T01:30:49;-23633.50;;;14.74;100.00
29385;BME280;16367;48.736;9.218;2023-07-31T01:32:53;-23632.69;;;14.72;100.00
29385;BME280;16367;48.736;9.218;2023-07-31T01:34:58;-23633.03;;;14.73;100.00
29385;BME280;16367;48.736;9.218;2023-07-31T01:37:01;-23636.81;;;14.85;100.00
29385;BME280;16367;48.736;9.218;2023-07-31T01:39:04;-23634.28;;;14.77;100.00
29385;BME280;16367;48.736;9.218;2023-07-31T01:41:06;-23632.56;;;14.71;100.00
29385;BME280;16367;48.736;9.218;2023-07-31T01:43:10;-23631.91;;;14.69;100.00
29385;BME280;16367;48.736;9.218;2023-07-31T01:45:13;-23634.75;;;14.78;100.00
29385;BME280;16367;48.736;9.218;2023-07-31T01:47:16;-23634.91;;;14.79;100.00
29385;BME280;16367;48.736;9.218;2023-07-31T01:49:18;-23636.19;;;14.83;100.00
29385;BME280;16367;48.736;9.218;2023-07-31T01:51:21;-23637.91;;;14.88;100.00
29385;BME280;16367;48.736;9.218;2023-07-31T01:53:24;-23636.66;;;14.84;100.00
29385;BME280;16367;48.736;9.218;2023-07-31T01:55:26;-23636.50;;;14.84;100.00
29385;BME280;16367;48.736;9.218;2023-07-31T01:57:29;-23633.34;;;14.74;100.00
29385;BME280;16367;48.736;9.218;2023-07-31T01:59:33;-23634.59;;;14.78;100.00
29385;BME280;16367;48.736;9.218;2023-07-31T02:01:36;-23635.69;;;14.81;100.00
29385;BME280;16367;48.736;9.218;2023-07-31T02:03:39;-23636.66;;;14.84;100.00
29385;BME280;16367;48.736;9.218;2023-07-31T02:05:44;-23632.88;;;14.72;100.00
29385;BME280;16367;48.736;9.218;2023-07-31T02:07:47;-23637.44;;;14.87;100.00
29385;BME280;16367;48.736;9.218;2023-07-31T02:09:50;-23635.88;;;14.82;100.00
29385;BME280;16367;48.736;9.218;2023-07-31T02:11:52;-23632.69;;;14.72;100.00
29385;BME280;16367;48.736;9.218;2023-07-31T02:13:55;-23632.06;;;14.70;100.00
29385;BME280;16367;48.736;9.218;2023-07-31T02:15:59;-23633.66;;;14.75;100.00
29385;BME280;16367;48.736;9.218;2023-07-31T02:18:02;-23632.06;;;14.70;100.00
29385;BME280;16367;48.736;9.218;2023-07-31T02:20:06;-23632.88;;;14.72;100.00
29385;BME280;16367;48.736;9.218;2023-07-31T02:22:09;-23632.56;;;14.71;100.00
29385;BME280;16367;48.736;9.218;2023-07-31T02:24:12;-23632.38;;;14.71;100.00
29385;BME280;16367;48.736;9.218;2023-07-31T02:26:14;-23631.91;;;14.69;100.00
29385;BME280;16367;48.736;9.218;2023-07-31T02:28:16;-23629.25;;;14.61;100.00
29385;BME280;16367;48.736;9.218;2023-07-31T02:30:19;-23629.06;;;14.60;100.00
29385;BME280;16367;48.736;9.218;2023-07-31T02:32:22;-23633.19;;;14.73;100.00
29385;BME280;16367;48.736;9.218;2023-07-31T02:34:25;-23630.81;;;14.66;100.00
29385;BME280;16367;48.736;9.218;2023-07-31T02:36:28;-23626.72;;;14.53;100.00
29385;BME280;16367;48.736;9.218;2023-07-31T02:38:31;-23624.03;;;14.44;100.00
29385;BME280;16367;48.736;9.218;2023-07-31T02:40:32;-23622.59;;;14.40;100.00
29385;BME280;16367;48.736;9.218;2023-07-31T02:42:35;-23623.22;;;14.42;100.00
29385;BME280;16367;48.736;9.218;2023-07-31T02:44:38;-23626.72;;;14.53;100.00
29385;BME280;16367;48.736;9.218;2023-07-31T02:46:41;-23622.28;;;14.39;100.00
29385;BME280;16367;48.736;9.218;2023-07-31T02:48:44;-23622.59;;;14.40;100.00
29385;BME280;16367;48.736;9.218;2023-07-31T02:50:47;-23621.34;;;14.36;100.00
29385;BME280;16367;48.736;9.218;2023-07-31T02:52:50;-23619.75;;;14.31;100.00
29385;BME280;16367;48.736;9.218;2023-07-31T02:54:53;-23617.22;;;14.23;100.00
29385;BME280;16367;48.736;9.218;2023-07-31T02:56:55;-23616.75;;;14.21;100.00
29385;BME280;16367;48.736;9.218;2023-07-31T02:58:58;-23615.66;;;14.17;100.00
29385;BME280;16367;48.736;9.218;2023-07-31T03:01:01;-23615.66;;;14.17;100.00
29385;BME280;16367;48.736;9.218;2023-07-31T03:03:03;-23611.38;;;14.04;100.00
29385;BME280;16367;48.736;9.218;2023-07-31T03:05:08;-23613.13;;;14.09;100.00
29385;BME280;16367;48.736;9.218;2023-07-31T03:07:10;-23611.06;;;14.03;100.00
29385;BME280;16367;48.736;9.218;2023-07-31T03:09:12;-23613.13;;;14.09;100.00
29385;BME280;16367;48.736;9.218;2023-07-31T03:11:15;-23612.66;;;14.08;100.00
29385;BME280;16367;48.736;9.218;2023-07-31T03:13:18;-23612.81;;;14.08;100.00
29385;BME280;16367;48.736;9.218;2023-07-31T03:15:21;-23611.06;;;14.03;100.00
29385;BME280;16367;48.736;9.218;2023-07-31T03:17:23;-23610.75;;;14.02;100.00
29385;BME280;16367;48.736;9.218;2023-07-31T03:19:26;-23613.13;;;14.09;100.00
29385;BME280;16367;48.736;9.218;2023-07-31T03:21:30;-23612.66;;;14.08;100.00
29385;BME280;16367;48.736;9.218;2023-07-31T03:23:33;-23607.44;;;13.91;100.00
29385;BME280;16367;48.736;9.218;2023-07-31T03:25:36;-23607.75;;;13.92;100.00
29385;BME280;16367;48.736;9.218;2023-07-31T03:27:38;-23605.22;;;13.84;100.00
29385;BME280;16367;48.736;9.218;2023-07-31T03:29:41;-23599.38;;;13.66;100.00
29385;BME280;16367;48.736;9.218;2023-07-31T03:31:44;-23596.88;;;13.58;100.00
29385;BME280;16367;48.736;9.218;2023-07-31T03:33:46;-23596.06;;;13.55;100.00
29385;BME280;16367;48.736;9.218;2023-07-31T03:35:50;-23603.19;;;13.78;100.00
29385;BME280;16367;48.736;9.218;2023-07-31T03:37:53;-23603.34;;;13.78;100.00
29385;BME280;16367;48.736;9.218;2023-07-31T03:39:56;-23599.06;;;13.65;100.00
29385;BME280;16367;48.736;9.218;2023-07-31T03:41:59;-23602.69;;;13.76;100.00
29385;BME280;16367;48.736;9.218;2023-07-31T03:44:02;-23603.03;;;13.77;100.00
29385;BME280;16367;48.736;9.218;2023-07-31T03:46:04;-23604.28;;;13.81;100.00
29385;BME280;16367;48.736;9.218;2023-07-31T03:48:07;-23606.66;;;13.89;100.00
29385;BME280;16367;48.736;9.218;2023-07-31T03:50:10;-23610.44;;;14.01;100.00
29385;BME280;16367;48.736;9.218;2023-07-31T03:52:13;-23614.38;;;14.13;100.00
29385;BME280;16367;48.736;9.218;2023-07-31T03:54:17;-23617.38;;;14.23;100.00
29385;BME280;16367;48.736;9.218;2023-07-31T03:56:19;-23620.72;;;14.34;100.00
29385;BME280;16367;48.736;9.218;2023-07-31T03:58:22;-23624.03;;;14.44;100.00
29385;BME280;16367;48.736;9.218;2023-07-31T04:00:25;-23625.44;;;14.49;100.00
29385;BME280;16367;48.736;9.218;2023-07-31T04:02:28;-23628.91;;;14.60;100.00
29385;BME280;16367;48.736;9.218;2023-07-31T04:04:31;-23632.06;;;14.70;99.44
29385;BME280;16367;48.736;9.218;2023-07-31T04:06:36;-23633.50;;;14.74;99.21
29385;BME280;16367;48.736;9.218;2023-07-31T04:08:39;-23636.66;;;14.84;99.15
29385;BME280;16367;48.736;9.218;2023-07-31T04:10:42;-23638.06;;;14.89;98.36
29385;BME280;16367;48.736;9.218;2023-07-31T04:12:45;-23643.28;;;15.06;98.00
29385;BME280;16367;48.736;9.218;2023-07-31T04:14:48;-23639.66;;;14.94;97.45
29385;BME280;16367;48.736;9.218;2023-07-31T04:16:50;-23641.22;;;14.99;97.28
29385;BME280;16367;48.736;9.218;2023-07-31T04:18:54;-23642.16;;;15.02;97.09
29385;BME280;16367;48.736;9.218;2023-07-31T04:20:56;-23646.59;;;15.16;96.37
29385;BME280;16367;48.736;9.218;2023-07-31T04:22:59;-23649.75;;;15.26;96.27
29385;BME280;16367;48.736;9.218;2023-07-31T04:25:02;-23649.13;;;15.24;95.53
29385;BME280;16367;48.736;9.218;2023-07-31T04:27:06;-23656.06;;;15.46;94.54
29385;BME280;16367;48.736;9.218;2023-07-31T04:29:09;-23656.69;;;15.48;93.81
29385;BME280;16367;48.736;9.218;2023-07-31T04:31:12;-23654.00;;;15.40;93.69
29385;BME280;16367;48.736;9.218;2023-07-31T04:33:15;-23659.22;;;15.56;93.36
29385;BME280;16367;48.736;9.218;2023-07-31T04:35:17;-23659.84;;;15.58;93.05
29385;BME280;16367;48.736;9.218;2023-07-31T04:37:20;-23661.72;;;15.64;93.16
29385;BME280;16367;48.736;9.218;2023-07-31T04:39:23;-23662.53;;;15.67;93.46
29385;BME280;16367;48.736;9.218;2023-07-31T04:41:26;-23665.34;;;15.76;92.92
29385;BME280;16367;48.736;9.218;2023-07-31T04:43:30;-23663.00;;;15.68;92.58
29385;BME280;16367;48.736;9.218;2023-07-31T04:45:33;-23660.47;;;15.60;93.35
29385;BME280;16367;48.736;9.218;2023-07-31T04:47:36;-23669.13;;;15.88;92.56
29385;BME280;16367;48.736;9.218;2023-07-31T04:49:39;-23670.88;;;15.94;90.96
29385;BME280;16367;48.736;9.218;2023-07-31T04:51:41;-23673.72;;;16.03;90.73
29385;BME280;16367;48.736;9.218;2023-07-31T04:53:44;-23677.19;;;16.14;90.24
29385;BME280;16367;48.736;9.218;2023-07-31T04:55:47;-23670.72;;;15.93;90.58
29385;BME280;16367;48.736;9.218;2023-07-31T04:57:49;-23670.72;;;15.93;90.84
29385;BME280;16367;48.736;9.218;2023-07-31T04:59:53;-23674.03;;;16.04;91.11
29385;BME280;16367;48.736;9.218;2023-07-31T05:01:56;-23667.09;;;15.82;91.82
29385;BME280;16367;48.736;9.218;2023-07-31T05:04:00;-23669.47;;;15.89;92.53
29385;BME280;16367;48.736;9.218;2023-07-31T05:06:05;-23667.88;;;15.84;92.04
29385;BME280;16367;48.736;9.218;2023-07-31T05:08:07;-23668.50;;;15.86;92.64
29385;BME280;16367;48.736;9.218;2023-07-31T05:10:10;-23668.34;;;15.86;92.70
29385;BME280;16367;48.736;9.218;2023-07-31T05:12:13;-23666.78;;;15.81;92.51
29385;BME280;16367;48.736;9.218;2023-07-31T05:14:16;-23667.41;;;15.83;92.31
29385;BME280;16367;48.736;9.218;2023-07-31T05:16:20;-23666.78;;;15.81;92.63
29385;BME280;16367;48.736;9.218;2023-07-31T05:18:22;-23666.63;;;15.80;92.21
29385;BME280;16367;48.736;9.218;2023-07-31T05:20:24;-23669.94;;;15.91;92.01
29385;BME280;16367;48.736;9.218;2023-07-31T05:22:27;-23671.50;;;15.96;91.94
29385;BME280;16367;48.736;9.218;2023-07-31T05:24:30;-23668.19;;;15.85;91.95
29385;BME280;16367;48.736;9.218;2023-07-31T05:26:32;-23670.25;;;15.92;92.29
29385;BME280;16367;48.736;9.218;2023-07-31T05:28:35;-23670.25;;;15.92;92.50
29385;BME280;16367;48.736;9.218;2023-07-31T05:30:38;-23664.56;;;15.74;93.31
29385;BME280;16367;48.736;9.218;2023-07-31T05:32:43;-23669.94;;;15.91;93.04
29385;BME280;16367;48.736;9.218;2023-07-31T05:34:46;-23668.03;;;15.85;92.77
29385;BME280;16367;48.736;9.218;2023-07-31T05:36:48;-23671.81;;;15.97;92.33
29385;BME280;16367;48.736;9.218;2023-07-31T05:38:51;-23678.44;;;16.18;92.13
29385;BME280;16367;48.736;9.218;2023-07-31T05:40:53;-23680.31;;;16.24;91.71
29385;BME280;16367;48.736;9.218;2023-07-31T05:42:56;-23679.38;;;16.21;91.52
29385;BME280;16367;48.736;9.218;2023-07-31T05:44:59;-23688.53;;;16.50;90.68
29385;BME280;16367;48.736;9.218;2023-07-31T05:47:02;-23688.69;;;16.51;90.52
29385;BME280;16367;48.736;9.218;2023-07-31T05:49:07;-23690.25;;;16.56;89.60
29385;BME280;16367;48.736;9.218;2023-07-31T05:51:09;-23694.66;;;16.70;88.74
29385;BME280;16367;48.736;9.218;2023-07-31T05:53:12;-23699.25;;;16.84;87.92
29385;BME280;16367;48.736;9.218;2023-07-31T05:55:15;-23692.63;;;16.63;87.56
29385;BME280;16367;48.736;9.218;2023-07-31T05:57:18;-23703.63;;;16.98;86.21
29385;BME280;16367;48.736;9.218;2023-07-31T05:59:21;-23702.22;;;16.94;87.10
29385;BME280;16367;48.736;9.218;2023-07-31T06:01:24;-23703.16;;;16.97;86.14
29385;BME280;16367;48.736;9.218;2023-07-31T06:03:27;-23705.69;;;17.05;86.45
29385;BME280;16367;48.736;9.218;2023-07-31T06:05:31;-23705.22;;;17.03;86.58
29385;BME280;16367;48.736;9.218;2023-07-31T06:07:34;-23714.97;;;17.35;85.74
29385;BME280;16367;48.736;9.218;2023-07-31T06:09:37;-23722.53;;;17.59;83.83
29385;BME280;16367;48.736;9.218;2023-07-31T06:11:39;-23725.22;;;17.67;82.63
29385;BME280;16367;48.736;9.218;2023-07-31T06:13:42;-23725.38;;;17.68;81.65
29385;BME280;16367;48.736;9.218;2023-07-31T06:15:46;-23730.72;;;17.85;81.45
29385;BME280;16367;48.736;9.218;2023-07-31T06:17:52;-23723.94;;;17.63;81.67
29385;BME280;16367;48.736;9.218;2023-07-31T06:19:56;-23729.94;;;17.82;81.91
29385;BME280;16367;48.736;9.218;2023-07-31T06:22:01;-23731.19;;;17.86;81.49
29385;BME280;16367;48.736;9.218;2023-07-31T06:24:04;-23742.81;;;18.24;80.25
29385;BME280;16367;48.736;9.218;2023-07-31T06:26:06;-23740.78;;;18.17;79.23
29385;BME280;16367;48.736;9.218;2023-07-31T06:28:09;-23744.25;;;18.28;78.88
29385;BME280;16367;48.736;9.218;2023-07-31T06:30:12;-23744.25;;;18.28;80.61
29385;BME280;16367;48.736;9.218;2023-07-31T06:32:15;-23752.25;;;18.54;79.24
29385;BME280;16367;48.736;9.218;2023-07-31T06:34:18;-23770.16;;;19.11;75.96
29385;BME280;16367;48.736;9.218;2023-07-31T06:36:21;-23772.84;;;19.20;75.05
29385;BME280;16367;48.736;9.218;2023-07-31T06:38:26;-23775.81;;;19.29;73.60
29385;BME280;16367;48.736;9.218;2023-07-31T06:40:29;-23774.09;;;19.24;72.91
29385;BME280;16367;48.736;9.218;2023-07-31T06:42:32;-23757.75;;;18.72;74.33
29385;BME280;16367;48.736;9.218;2023-07-31T06:44:35;-23759.66;;;18.78;74.96
29385;BME280;16367;48.736;9.218;2023-07-31T06:46:38;-23764.03;;;18.92;76.20
29385;BME280;16367;48.736;9.218;2023-07-31T06:48:41;-23760.59;;;18.81;74.68
29385;BME280;16367;48.736;9.218;2023-07-31T06:50:44;-23765.63;;;18.97;74.00
29385;BME280;16367;48.736;9.218;2023-07-31T06:52:46;-23764.84;;;18.94;74.76
29385;BME280;16367;48.736;9.218;2023-07-31T06:55:02;-23777.56;;;19.35;73.97
29385;BME280;16367;48.736;9.218;2023-07-31T06:57:06;-23783.22;;;19.53;72.36
29385;BME280;16367;48.736;9.218;2023-07-31T06:59:09;-23788.56;;;19.70;71.06
29385;BME280;16367;48.736;9.218;2023-07-31T07:01:12;-23791.69;;;19.80;70.79
29385;BME280;16367;48.736;9.218;2023-07-31T07:03:16;-23791.53;;;19.80;70.07
29385;BME280;16367;48.736;9.218;2023-07-31T07:05:19;-23785.41;;;19.60;71.43
29385;BME280;16367;48.736;9.218;2023-07-31T07:07:22;-23768.44;;;19.06;74.10
29385;BME280;16367;48.736;9.218;2023-07-31T07:09:24;-23770.34;;;19.12;73.09
29385;BME280;16367;48.736;9.218;2023-07-31T07:11:28;-23779.44;;;19.41;72.19
29385;BME280;16367;48.736;9.218;2023-07-31T07:13:30;-23774.56;;;19.25;72.07
29385;BME280;16367;48.736;9.218;2023-07-31T07:15:33;-23766.25;;;18.99;72.02
29385;BME280;16367;48.736;9.218;2023-07-31T07:17:36;-23789.34;;;19.73;71.15
29385;BME280;16367;48.736;9.218;2023-07-31T07:19:40;-23793.25;;;19.85;68.63
29385;BME280;16367;48.736;9.218;2023-07-31T07:21:43;-23807.53;;;20.31;68.14
29385;BME280;16367;48.736;9.218;2023-07-31T07:23:45;-23795.78;;;19.93;68.58
29385;BME280;16367;48.736;9.218;2023-07-31T07:25:48;-23796.09;;;19.94;67.81
29385;BME280;16367;48.736;9.218;2023-07-31T07:27:52;-23817.44;;;20.63;66.59
29385;BME280;16367;48.736;9.218;2023-07-31T07:29:55;-23841.25;;;21.39;62.30
29385;BME280;16367;48.736;9.218;2023-07-31T07:31:58;-23835.78;;;21.22;60.82
29385;BME280;16367;48.736;9.218;2023-07-31T07:34:01;-23810.53;;;20.41;65.36
29385;BME280;16367;48.736;9.218;2023-07-31T07:36:04;-23802.06;;;20.14;66.67
29385;BME280;16367;48.736;9.218;2023-07-31T07:38:11;-23792.31;;;19.82;67.46
29385;BME280;16367;48.736;9.218;2023-07-31T07:40:13;-23790.75;;;19.77;68.71
29385;BME280;16367;48.736;9.218;2023-07-31T07:42:16;-23785.72;;;19.61;67.13
29385;BME280;16367;48.736;9.218;2023-07-31T07:44:20;-23779.44;;;19.41;68.85
29385;BME280;16367;48.736;9.218;2023-07-31T07:46:23;-23786.03;;;19.62;69.17
29385;BME280;16367;48.736;9.218;2023-07-31T07:48:26;-23795.16;;;19.91;66.68
29385;BME280;16367;48.736;9.218;2023-07-31T07:50:29;-23807.22;;;20.30;65.55
29385;BME280;16367;48.736;9.218;2023-07-31T07:52:31;-23788.25;;;19.69;66.04
29385;BME280;16367;48.736;9.218;2023-07-31T07:54:34;-23813.03;;;20.49;64.97
29385;BME280;16367;48.736;9.218;2023-07-31T07:56:37;-23833.13;;;21.13;62.07
29385;BME280;16367;48.736;9.218;2023-07-31T07:58:40;-23862.88;;;22.09;59.35
29385;BME280;16367;48.736;9.218;2023-07-31T08:00:50;-23871.66;;;22.37;57.57
29385;BME280;16367;48.736;9.218;2023-07-31T08:02:53;-23867.72;;;22.24;57.52
29385;BME280;16367;48.736;9.218;2023-07-31T08:04:56;-23872.13;;;22.39;56.49
29385;BME280;16367;48.736;9.218;2023-07-31T08:06:59;-23847.69;;;21.60;59.12
29385;BME280;16367;48.736;9.218;2023-07-31T08:09:02;-23841.41;;;21.40;60.31
29385;BME280;16367;48.736;9.218;2023-07-31T08:11:07;-23836.25;;;21.23;62.11
29385;BME280;16367;48.736;9.218;2023-07-31T08:13:11;-23853.00;;;21.77;60.64
29385;BME280;16367;48.736;9.218;2023-07-31T08:15:14;-23844.41;;;21.49;61.32
29385;BME280;16367;48.736;9.218;2023-07-31T08:17:18;-23871.81;;;22.38;57.94
29385;BME280;16367;48.736;9.218;2023-07-31T08:19:21;-23869.75;;;22.31;55.49
29385;BME280;16367;48.736;9.218;2023-07-31T08:21:24;-23863.81;;;22.12;56.02
29385;BME280;16367;48.736;9.218;2023-07-31T08:23:26;-23850.97;;;21.71;56.88
29385;BME280;16367;48.736;9.218;2023-07-31T08:25:29;-23890.91;;;22.99;55.19
29385;BME280;16367;48.736;9.218;2023-07-31T08:27:32;-23886.69;;;22.85;55.58
29385;BME280;16367;48.736;9.218;2023-07-31T08:29:36;-23876.34;;;22.52;54.36
29385;BME280;16367;48.736;9.218;2023-07-31T08:31:38;-23889.50;;;22.94;54.65
29385;BME280;16367;48.736;9.218;2023-07-31T08:33:42;-23877.59;;;22.56;53.71
29385;BME280;16367;48.736;9.218;2023-07-31T08:35:45;-23890.13;;;22.96;54.12
29385;BME280;16367;48.736;9.218;2023-07-31T08:37:48;-23876.97;;;22.54;54.71
29385;BME280;16367;48.736;9.218;2023-07-31T08:39:51;-23880.88;;;22.67;54.70
29385;BME280;16367;48.736;9.218;2023-07-31T08:41:58;-23892.63;;;23.05;54.09
29385;BME280;16367;48.736;9.218;2023-07-31T08:44:01;-23904.03;;;23.41;53.26
29385;BME280;16367;48.736;9.218;2023-07-31T08:46:04;-23897.31;;;23.20;53.06
29385;BME280;16367;48.736;9.218;2023-07-31T08:48:07;-23915.13;;;23.77;52.45
29385;BME280;16367;48.736;9.218;2023-07-31T08:50:12;-23907.63;;;23.53;51.90
29385;BME280;16367;48.736;9.218;2023-07-31T08:52:15;-23861.31;;;22.04;56.22
29385;BME280;16367;48.736;9.218;2023-07-31T08:54:18;-23853.00;;;21.77;57.61
29385;BME280;16367;48.736;9.218;2023-07-31T08:56:21;-23846.59;;;21.57;58.09
29385;BME280;16367;48.736;9.218;2023-07-31T08:58:23;-23880.09;;;22.64;55.24
29385;BME280;16367;48.736;9.218;2023-07-31T09:00:27;-23897.47;;;23.20;54.34
29385;BME280;16367;48.736;9.218;2023-07-31T09:02:33;-23893.88;;;23.09;54.76
29385;BME280;16367;48.736;9.218;2023-07-31T09:04:37;-23863.81;;;22.12;56.77
29385;BME280;16367;48.736;9.218;2023-07-31T09:06:42;-23854.41;;;21.82;57.75
29385;BME280;16367;48.736;9.218;2023-07-31T09:08:46;-23843.28;;;21.46;58.59
29385;BME280;16367;48.736;9.218;2023-07-31T09:10:49;-23845.66;;;21.53;57.90
29385;BME280;16367;48.736;9.218;2023-07-31T09:12:52;-23829.66;;;21.02;59.70
29385;BME280;16367;48.736;9.218;2023-07-31T09:14:55;-23824.63;;;20.86;60.53
29385;BME280;16367;48.736;9.218;2023-07-31T09:16:58;-23850.97;;;21.71;58.34
29385;BME280;16367;48.736;9.218;2023-07-31T09:19:01;-23861.31;;;22.04;59.03
29385;BME280;16367;48.736;9.218;2023-07-31T09:21:05;-23845.66;;;21.53;58.52
29385;BME280;16367;48.736;9.218;2023-07-31T09:23:12;-23859.13;;;21.97;58.56
29385;BME280;16367;48.736;9.218;2023-07-31T09:25:16;-23843.44;;;21.46;58.19
29385;BME280;16367;48.736;9.218;2023-07-31T09:27:18;-23844.25;;;21.49;59.45
29385;BME280;16367;48.736;9.218;2023-07-31T09:29:21;-23872.91;;;22.41;58.29
29385;BME280;16367;48.736;9.218;2023-07-31T09:31:38;-23840.94;;;21.38;59.83
29385;BME280;16367;48.736;9.218;2023-07-31T09:33:54;-23829.81;;;21.03;60.76
29385;BME280;16367;48.736;9.218;2023-07-31T09:35:59;-23833.75;;;21.15;61.16
29385;BME280;16367;48.736;9.218;2023-07-31T09:38:05;-23855.22;;;21.84;59.22
29385;BME280;16367;48.736;9.218;2023-07-31T09:40:24;-23864.75;;;22.15;57.20
29385;BME280;16367;48.736;9.218;2023-07-31T09:42:27;-23845.50;;;21.53;58.31
29385;BME280;16367;48.736;9.218;2023-07-31T09:44:38;-23838.75;;;21.31;60.79
29385;BME280;16367;48.736;9.218;2023-07-31T09:46:42;-23836.25;;;21.23;61.92
29385;BME280;16367;48.736;9.218;2023-07-31T09:48:46;-23827.78;;;20.96;62.73
29385;BME280;16367;48.736;9.218;2023-07-31T09:50:49;-23829.34;;;21.01;63.52
29385;BME280;16367;48.736;9.218;2023-07-31T09:52:52;-23829.03;;;21.00;63.24
29385;BME280;16367;48.736;9.218;2023-07-31T09:54:54;-23822.44;;;20.79;62.98
29385;BME280;16367;48.736;9.218;2023-07-31T09:56:59;-23829.66;;;21.02;63.84
29385;BME280;16367;48.736;9.218;2023-07-31T09:59:04;-23831.84;;;21.09;62.73
29385;BME280;16367;48.736;9.218;2023-07-31T10:01:07;-23848.63;;;21.63;62.19
29385;BME280;16367;48.736;9.218;2023-07-31T10:03:11;-23844.09;;;21.48;61.31
29385;BME280;16367;48.736;9.218;2023-07-31T10:05:15;-23840.16;;;21.36;61.70
29385;BME280;16367;48.736;9.218;2023-07-31T10:07:20;-23837.19;;;21.26;62.01
29385;BME280;16367;48.736;9.218;2023-07-31T10:09:25;-23846.91;;;21.58;60.99
29385;BME280;16367;48.736;9.218;2023-07-31T10:11:33;-23856.94;;;21.90;60.50
29385;BME280;16367;48.736;9.218;2023-07-31T10:13:41;-23862.72;;;22.08;58.95
29385;BME280;16367;48.736;9.218;2023-07-31T10:15:45;-23873.22;;;22.42;57.61
29385;BME280;16367;48.736;9.218;2023-07-31T10:17:49;-23864.59;;;22.14;57.16
29385;BME280;16367;48.736;9.218;2023-07-31T10:19:53;-23880.41;;;22.65;54.89
29385;BME280;16367;48.736;9.218;2023-07-31T10:21:56;-23921.22;;;23.97;52.27
29385;BME280;16367;48.736;9.218;2023-07-31T10:24:03;-23886.53;;;22.85;52.77
29385;BME280;16367;48.736;9.218;2023-07-31T10:26:07;-23901.69;;;23.34;53.22
29385;BME280;16367;48.736;9.218;2023-07-31T10:28:11;-23901.38;;;23.33;53.60
29385;BME280;16367;48.736;9.218;2023-07-31T10:30:17;-23876.34;;;22.52;54.53
29385;BME280;16367;48.736;9.218;2023-07-31T10:32:21;-23870.72;;;22.34;55.71
29385;BME280;16367;48.736;9.218;2023-07-31T10:34:25;-23876.50;;;22.53;55.53
29385;BME280;16367;48.736;9.218;2023-07-31T10:36:28;-23867.88;;;22.25;56.36
29385;BME280;16367;48.736;9.218;2023-07-31T10:38:30;-23878.84;;;22.60;56.45
29385;BME280;16367;48.736;9.218;2023-07-31T10:40:33;-23888.88;;;22.92;55.36
29385;BME280;16367;48.736;9.218;2023-07-31T10:42:37;-23876.66;;;22.53;55.75
29385;BME280;16367;48.736;9.218;2023-07-31T10:44:44;-23890.28;;;22.97;54.91